Harbor Heights, Washington
Current Conditions -  °F | °C
As of 10:58 PM on Wednesday 22 Oct 2014 (Local Time) from KTCM Reporting Station
Broken Clouds Broken Clouds  
Wind Chill: 56°   Ceiling: 10000
Heat Index: 56°   Visibility: 10mi
Dew Point: 50°   Wind: 14mph
Humidity: 83%   Direction: 180°S
Pressure: 29.69"   Gusts: NA
Location:  47.0168°N, 122.279°W
Report Text: KTCM 230558Z AUTO 18012KT 10SM BKN100 13/10 A2969 RMK AO2 RAB0457E0508 SLP058 P0000 60005 T01310102 10144 20129 52035 $
Loading
Personal Weather Stations






























Interactive Weather Map
Tropical Storm Tracking
New forecast layout! Learn more

10-Day Weather Forecast

Advertisements
Track Severe Weather on mobile